createdAt,value
2022-09-23T00:02:09.814Z,0.25
2022-09-23T00:07:09.187Z,0.40
2022-09-23T00:12:14.991Z,0.80
2022-09-23T00:17:14.385Z,0.63
2022-09-23T00:22:16.875Z,0.90
2022-09-23T00:27:16.379Z,0.90
2022-09-23T00:32:18.726Z,0.60
2022-09-23T00:37:25.073Z,0.80
2022-09-23T00:42:35.135Z,0.68
2022-09-23T00:47:59.236Z,0.82
2022-09-23T00:58:44.957Z,1.15
2022-09-23T01:03:50.252Z,1.20
2022-09-23T01:08:50.382Z,1.20
2022-09-23T01:14:16.969Z,1.00
2022-09-23T01:19:37.078Z,1.00
2022-09-23T01:24:59.747Z,0.82
2022-09-23T01:30:07.047Z,1.20
2022-09-23T01:35:04.652Z,1.13
2022-09-23T01:40:33.350Z,0.75
2022-09-23T01:45:35.864Z,1.00
2022-09-23T01:51:04.196Z,0.95
2022-09-23T01:56:09.661Z,0.65
2022-09-23T02:01:21.955Z,0.73
2022-09-23T02:06:30.505Z,1.00
2022-09-23T02:11:32.370Z,0.68
2022-09-23T02:16:40.304Z,0.60
2022-09-23T02:21:47.491Z,1.08
2022-09-23T02:26:51.425Z,0.63
2022-09-23T02:32:05.220Z,0.60
2022-09-23T02:37:28.945Z,0.80
2022-09-23T02:42:52.197Z,0.87
2022-09-23T02:47:57.759Z,1.10
2022-09-23T02:52:56.449Z,1.23
2022-09-23T02:57:55.508Z,0.98
2022-09-23T03:03:33.528Z,1.15
2022-09-23T03:08:53.914Z,1.30
2022-09-23T03:14:08.032Z,1.40
2022-09-23T03:19:45.431Z,2.05
2022-09-23T03:24:49.721Z,1.38
2022-09-23T03:29:56.177Z,2.08
2022-09-23T03:34:56.761Z,2.08
2022-09-23T03:40:12.040Z,2.47
2022-09-23T03:45:13.184Z,2.50
2022-09-23T03:50:17.689Z,2.50
2022-09-23T03:55:17.283Z,1.98
2022-09-23T04:00:15.487Z,2.00
2022-09-23T04:05:15.183Z,2.05
2022-09-23T04:10:17.032Z,2.00
2022-09-23T04:15:18.808Z,2.40
2022-09-23T04:20:19.182Z,1.92
2022-09-23T04:25:21.383Z,2.30
2022-09-23T04:30:24.923Z,4.22
2022-09-23T04:35:23.309Z,2.78
2022-09-23T04:40:25.054Z,3.60
2022-09-23T04:45:24.041Z,4.70
2022-09-23T04:50:28.376Z,5.82
2022-09-23T04:55:27.146Z,4.18
2022-09-23T05:00:28.851Z,2.88
2022-09-23T05:05:29.898Z,3.20
2022-09-23T05:10:28.437Z,2.95
2022-09-23T05:15:27.965Z,2.42
2022-09-23T05:20:30.397Z,2.95
2022-09-23T05:25:36.288Z,2.70
2022-09-23T05:30:39.537Z,2.35
2022-09-23T05:35:51.524Z,3.08
2022-09-23T05:40:57.968Z,2.40
2022-09-23T05:46:14.407Z,1.95
2022-09-23T05:51:20.330Z,2.60
2022-09-23T05:56:19.900Z,3.28
2022-09-23T06:01:21.324Z,2.40
2022-09-23T06:06:21.697Z,3.10
2022-09-23T06:11:23.227Z,2.58
2022-09-23T06:16:20.928Z,2.33
2022-09-23T06:21:20.890Z,2.03
2022-09-23T06:26:21.252Z,2.53
2022-09-23T06:31:21.885Z,2.03
2022-09-23T06:36:38.851Z,2.03
2022-09-23T06:41:44.852Z,3.63
2022-09-23T06:46:46.888Z,3.53
2022-09-23T06:51:45.392Z,3.03
2022-09-23T06:56:47.743Z,3.25
2022-09-23T07:01:50.801Z,4.82
2022-09-23T07:06:49.162Z,4.43
2022-09-23T07:11:50.711Z,21.95
2022-09-23T07:16:54.110Z,5.28
2022-09-23T07:21:52.571Z,6.90
2022-09-23T07:26:58.307Z,3.63
2022-09-23T07:32:11.046Z,4.20
2022-09-23T07:37:23.605Z,5.07
2022-09-23T07:42:24.775Z,4.50
2022-09-23T07:47:28.091Z,5.43
2022-09-23T07:52:28.853Z,4.63
2022-09-23T07:57:31.027Z,6.45
2022-09-23T08:02:31.706Z,5.60
2022-09-23T08:07:34.740Z,5.43
2022-09-23T08:12:37.337Z,6.22
2022-09-23T08:17:39.038Z,6.47
2022-09-23T08:22:42.941Z,5.63
2022-09-23T08:27:50.468Z,5.07
2022-09-23T08:32:54.219Z,5.32
2022-09-23T08:37:53.839Z,4.97
2022-09-23T08:42:57.260Z,9.25
2022-09-23T08:48:00.959Z,5.78
2022-09-23T08:53:03.772Z,4.57
2022-09-23T08:58:24.980Z,5.15
2022-09-23T09:03:26.936Z,4.93
2022-09-23T09:08:40.837Z,5.68
2022-09-23T09:14:44.277Z,5.15
2022-09-23T09:20:27.391Z,4.38
2022-09-23T09:25:53.014Z,4.88
2022-09-23T09:30:54.701Z,4.82
2022-09-23T09:36:32.981Z,4.18
2022-09-23T09:41:34.207Z,4.82
2022-09-23T09:47:13.140Z,5.00
2022-09-23T09:52:12.365Z,4.97
2022-09-23T09:57:25.410Z,6.00
2022-09-23T10:02:32.542Z,4.30
2022-09-23T10:07:36.377Z,4.53
2022-09-23T10:12:59.502Z,4.53
2022-09-23T10:18:02.342Z,4.47
2022-09-23T10:23:06.788Z,4.55
2022-09-23T10:28:31.402Z,2.83
2022-09-23T10:33:32.677Z,5.03
2022-09-23T10:38:34.849Z,2.92
2022-09-23T10:44:07.967Z,2.10
2022-09-23T10:49:44.341Z,1.60
2022-09-23T10:55:19.801Z,1.58
2022-09-23T11:00:42.894Z,1.98
2022-09-23T11:06:01.901Z,1.60
2022-09-23T11:11:26.893Z,1.42
2022-09-23T11:16:53.123Z,1.20
2022-09-23T11:22:05.444Z,1.95
2022-09-23T11:27:20.511Z,2.10
2022-09-23T11:38:52.582Z,1.50
2022-09-23T11:44:44.134Z,1.98
2022-09-23T11:50:12.977Z,1.45
2022-09-23T11:56:00.783Z,1.65
2022-09-23T12:01:35.325Z,1.10
2022-09-23T12:07:37.315Z,1.60
2022-09-23T12:13:41.800Z,1.45
2022-09-23T12:25:38.059Z,1.30
2022-09-23T12:30:39.602Z,2.47
2022-09-23T12:35:51.201Z,1.25
2022-09-23T12:40:57.626Z,1.75
2022-09-23T12:46:37.270Z,1.30
2022-09-23T12:52:19.380Z,1.27
2022-09-23T12:57:40.478Z,1.38
2022-09-23T13:03:54.923Z,1.00
2022-09-23T13:08:56.696Z,1.23
2022-09-23T13:14:11.754Z,0.90
2022-09-23T13:24:48.590Z,0.60
2022-09-23T13:30:13.185Z,0.75
2022-09-23T13:35:34.275Z,0.82
2022-09-23T13:41:04.752Z,0.95
2022-09-23T13:46:50.771Z,0.88
2022-09-23T13:53:13.762Z,0.85
2022-09-23T13:59:11.914Z,0.85
2022-09-23T14:03:40.533Z,0.73
2022-09-23T14:08:42.345Z,0.70
2022-09-23T14:14:28.841Z,0.80
2022-09-23T14:20:17.654Z,2.08
2022-09-23T14:31:35.383Z,1.00
2022-09-23T14:43:32.765Z,0.70
2022-09-23T14:48:40.039Z,0.75
2022-09-23T14:53:44.701Z,1.50
2022-09-23T14:59:09.166Z,1.50
2022-09-23T15:04:36.497Z,1.20
2022-09-23T15:09:39.982Z,1.42
2022-09-23T15:15:06.514Z,1.55
2022-09-23T15:20:11.814Z,0.73
2022-09-23T15:25:15.972Z,0.50
2022-09-23T15:30:36.118Z,0.50
2022-09-23T15:46:52.140Z,1.20
2022-09-23T15:51:52.186Z,1.38
2022-09-23T15:56:54.157Z,1.00
2022-09-23T16:02:12.597Z,0.75
2022-09-23T16:07:17.744Z,0.60
2022-09-23T16:12:22.619Z,0.90
2022-09-23T16:17:29.489Z,0.90
2022-09-23T16:22:33.126Z,0.80
2022-09-23T16:27:34.760Z,1.00
2022-09-23T16:32:46.123Z,0.73
2022-09-23T16:37:58.056Z,1.55
2022-09-23T16:43:14.495Z,2.90
2022-09-23T16:48:13.773Z,2.08
2022-09-23T16:53:19.974Z,1.83
2022-09-23T16:59:21.719Z,1.98
2022-09-23T17:05:04.366Z,4.77
2022-09-23T17:15:35.666Z,2.85
2022-09-23T17:21:03.430Z,3.15
2022-09-23T17:26:13.706Z,2.60
2022-09-23T17:31:14.890Z,5.07
2022-09-23T17:36:15.172Z,5.03
2022-09-23T17:41:42.562Z,6.18
2022-09-23T17:52:34.776Z,7.50
2022-09-23T17:57:39.279Z,5.93
2022-09-23T18:03:03.635Z,10.13
2022-09-23T18:08:33.190Z,7.00
2022-09-23T18:26:00.219Z,5.30
2022-09-23T18:31:46.676Z,5.75
2022-09-23T18:37:02.048Z,7.13
2022-09-23T18:42:24.417Z,6.45
2022-09-23T18:53:17.454Z,4.28
2022-09-23T18:58:26.458Z,4.13
2022-09-23T19:03:48.005Z,3.30
2022-09-23T19:09:05.459Z,4.53
2022-09-23T19:14:11.349Z,4.35
2022-09-23T19:19:55.608Z,7.25
2022-09-23T19:31:29.028Z,7.22
2022-09-23T19:36:34.704Z,6.78
2022-09-23T19:41:35.598Z,7.32
2022-09-23T19:46:37.575Z,6.03
2022-09-23T19:51:39.171Z,5.30
2022-09-23T19:56:47.229Z,3.63
2022-09-23T20:02:09.622Z,2.38
2022-09-23T20:13:27.995Z,1.73
2022-09-23T20:18:26.768Z,2.20
2022-09-23T20:23:32.227Z,1.95
2022-09-23T20:28:33.953Z,2.10
2022-09-23T20:33:31.315Z,1.65
2022-09-23T20:38:33.765Z,1.80
2022-09-23T20:43:34.561Z,1.15
2022-09-23T20:48:32.395Z,1.80
2022-09-23T20:53:30.691Z,1.77
2022-09-23T20:58:30.365Z,2.00
2022-09-23T21:03:29.622Z,1.77
2022-09-23T21:08:31.271Z,2.00
2022-09-23T21:13:31.658Z,1.70
2022-09-23T21:18:32.585Z,1.50
2022-09-23T21:23:35.461Z,1.63
2022-09-23T21:28:37.905Z,1.55
2022-09-23T21:33:37.607Z,1.60
2022-09-23T21:38:39.389Z,1.45
2022-09-23T21:43:38.701Z,1.90
2022-09-23T21:48:42.015Z,1.20
2022-09-23T21:53:42.579Z,1.58
2022-09-23T21:58:43.541Z,1.42
2022-09-23T22:03:46.874Z,1.73
2022-09-23T22:08:49.945Z,1.30
2022-09-23T22:13:48.455Z,1.50
2022-09-23T22:18:46.082Z,1.48
2022-09-23T22:23:49.961Z,1.70
2022-09-23T22:34:07.108Z,1.67
2022-09-23T22:39:07.031Z,1.60
2022-09-23T22:44:05.588Z,1.50
2022-09-23T22:49:09.230Z,1.08
2022-09-23T22:54:10.458Z,1.58
2022-09-23T22:59:12.750Z,1.40
2022-09-23T23:04:20.907Z,1.38
2022-09-23T23:09:24.519Z,1.33
2022-09-23T23:14:24.521Z,2.00
2022-09-23T23:19:24.828Z,1.85
2022-09-23T23:24:26.175Z,1.70
2022-09-23T23:29:26.293Z,1.98
2022-09-23T23:34:30.592Z,1.75
2022-09-23T23:39:28.820Z,1.35
2022-09-23T23:44:31.225Z,2.17
2022-09-23T23:49:34.132Z,2.65
2022-09-23T23:54:33.156Z,2.45
2022-09-23T23:59:34.498Z,2.40
